Time;durP1;ratioP1;P1;durP2;ratioP2;P2;SDS_P1;SDS_P2;PMS_P1;PMS_P2;Temp;Humidity;BMP_temperature;BMP_pressure;BME280_temperature;BME280_humidity;BME280_pressure;Samples;Min_cycle;Max_cycle;Signal;HPM_P1;HPM_P2
2023/05/28 00:01:03;;;;;;;0.30;0.30;;;11.70;99.90;;;;;;5113800;28;20036;-68
2023/05/28 00:03:31;;;;;;;0.20;0.20;;;11.70;99.90;;;;;;5113510;28;20087;-68
2023/05/28 00:05:58;;;;;;;0.30;0.30;;;11.10;99.90;;;;;;5094908;28;20051;-68
2023/05/28 00:08:24;;;;;;;0.20;0.20;;;11.40;99.90;;;;;;5113522;28;20101;-69
2023/05/28 00:10:50;;;;;;;0.80;0.80;;;11.80;99.90;;;;;;5113369;28;20039;-68
2023/05/28 00:13:17;;;;;;;0.50;0.50;;;11.70;99.90;;;;;;5113309;28;20124;-68
2023/05/28 00:15:44;;;;;;;0.30;0.30;;;11.50;99.90;;;;;;5113236;28;20411;-68
2023/05/28 00:18:11;;;;;;;0.20;0.20;;;12.00;99.90;;;;;;5113093;28;20135;-68
2023/05/28 00:20:40;;;;;;;0.20;0.20;;;11.50;99.90;;;;;;5113417;28;20092;-68
2023/05/28 00:23:06;;;;;;;0.40;0.20;;;12.20;99.90;;;;;;5095059;28;20156;-68
2023/05/28 00:25:32;;;;;;;0.63;0.55;;;12.20;99.90;;;;;;5113064;28;20126;-68
2023/05/28 00:27:57;;;;;;;0.30;0.30;;;11.30;99.90;;;;;;5094938;28;20092;-68
2023/05/28 00:30:24;;;;;;;4.60;0.75;;;11.90;99.90;;;;;;5112760;28;20086;-68
2023/05/28 00:32:50;;;;;;;0.20;0.20;;;11.90;99.90;;;;;;5112843;28;20055;-69
2023/05/28 00:35:16;;;;;;;0.20;0.20;;;11.30;99.90;;;;;;5112967;28;20059;-69
2023/05/28 00:37:42;;;;;;;0.43;0.43;;;11.20;99.90;;;;;;5094733;28;20043;-68
2023/05/28 00:40:08;;;;;;;0.90;0.57;;;11.10;99.90;;;;;;5112858;28;20054;-68
2023/05/28 00:42:34;;;;;;;0.30;0.30;;;11.10;99.90;;;;;;5112626;28;20043;-68
2023/05/28 00:45:00;;;;;;;0.20;0.20;;;11.40;99.90;;;;;;5112511;28;20177;-68
2023/05/28 00:47:26;;;;;;;0.50;0.50;;;11.10;99.90;;;;;;5094573;28;20467;-69
2023/05/28 00:49:55;;;;;;;1.80;0.50;;;10.80;99.90;;;;;;5094684;28;20056;-68
2023/05/28 00:52:22;;;;;;;0.35;0.35;;;11.60;99.90;;;;;;5077882;28;20051;-68
2023/05/28 00:54:49;;;;;;;0.40;0.40;;;11.60;99.90;;;;;;5112429;28;20134;-69
2023/05/28 00:57:15;;;;;;;0.30;0.30;;;10.90;99.90;;;;;;5112463;28;20044;-69
2023/05/28 00:59:42;;;;;;;0.40;0.40;;;11.20;99.90;;;;;;5112412;28;20062;-67
2023/05/28 01:02:08;;;;;;;1.00;0.50;;;11.30;99.90;;;;;;5112453;28;20399;-68
2023/05/28 01:04:34;;;;;;;;;;;10.80;99.90;;;;;;5112828;28;20040;-69
2023/05/28 01:07:00;;;;;;;0.43;0.30;;;11.20;99.90;;;;;;5094088;28;19931;-68
2023/05/28 01:09:27;;;;;;;1.65;0.70;;;11.20;99.90;;;;;;5112291;28;20116;-68
2023/05/28 01:11:52;;;;;;;;;;;11.00;99.90;;;;;;5094425;28;20097;-67
2023/05/28 01:14:22;;;;;;;0.65;0.65;;;10.90;99.90;;;;;;5094065;28;19931;-67
2023/05/28 01:16:48;;;;;;;0.65;0.65;;;11.20;99.90;;;;;;5094045;28;20134;-68
2023/05/28 01:19:18;;;;;;;0.28;0.28;;;10.90;99.90;;;;;;5112339;28;20146;-68
2023/05/28 01:21:46;;;;;;;0.43;0.43;;;10.60;99.90;;;;;;5112171;28;20529;-68
2023/05/28 01:24:15;;;;;;;0.35;0.35;;;10.50;99.90;;;;;;5112160;28;20058;-68
2023/05/28 01:26:42;;;;;;;0.77;0.77;;;10.40;99.90;;;;;;5111991;28;20044;-68
2023/05/28 01:29:17;;;;;;;0.35;0.35;;;10.50;99.90;;;;;;5111902;28;20101;-68
2023/05/28 01:31:44;;;;;;;0.40;0.40;;;10.60;99.90;;;;;;5093726;28;20051;-68
2023/05/28 01:34:11;;;;;;;0.35;0.35;;;11.00;99.90;;;;;;5112153;28;20100;-68
2023/05/28 01:36:42;;;;;;;0.20;0.20;;;10.80;99.90;;;;;;5112053;28;20050;-68
2023/05/28 01:39:12;;;;;;;0.50;0.50;;;11.00;99.90;;;;;;5111899;28;20047;-68
2023/05/28 01:41:38;;;;;;;1.98;0.77;;;11.40;99.90;;;;;;5111887;28;20403;-68
2023/05/28 01:44:06;;;;;;;0.40;0.40;;;10.50;99.90;;;;;;5112119;28;20044;-68
2023/05/28 01:46:33;;;;;;;0.22;0.22;;;10.90;99.90;;;;;;5112014;28;20411;-68
2023/05/28 01:49:00;;;;;;;0.30;0.30;;;10.40;99.90;;;;;;5112040;28;20051;-68
2023/05/28 01:51:26;;;;;;;0.52;0.40;;;11.70;99.90;;;;;;5111935;28;20048;-68
2023/05/28 01:53:52;;;;;;;0.75;0.75;;;10.20;99.90;;;;;;5112165;28;20047;-69
2023/05/28 01:56:18;;;;;;;0.85;0.85;;;10.90;99.90;;;;;;5111983;28;20182;-68
2023/05/28 01:58:43;;;;;;;0.45;0.45;;;11.10;99.90;;;;;;5111830;28;20467;-68
2023/05/28 02:01:14;;;;;;;0.20;0.20;;;11.00;99.90;;;;;;5111935;28;20110;-68
2023/05/28 02:03:40;;;;;;;0.30;0.30;;;10.20;99.90;;;;;;5111898;28;20142;-68
2023/05/28 02:06:06;;;;;;;0.70;0.70;;;10.70;99.90;;;;;;5093661;28;20158;-69
2023/05/28 02:08:31;;;;;;;0.90;0.90;;;10.30;99.90;;;;;;5111687;28;20144;-68
2023/05/28 02:10:57;;;;;;;0.30;0.30;;;10.20;99.90;;;;;;5111757;28;20469;-68
2023/05/28 02:13:23;;;;;;;0.35;0.35;;;9.90;99.90;;;;;;5112014;28;20039;-68
2023/05/28 02:15:48;;;;;;;0.20;0.20;;;11.00;99.90;;;;;;5093506;28;20043;-68
2023/05/28 02:18:14;;;;;;;1.08;1.08;;;9.80;99.90;;;;;;5111472;28;20430;-68
2023/05/28 02:20:42;;;;;;;0.43;0.43;;;10.10;99.90;;;;;;5111580;28;20036;-68
2023/05/28 02:23:08;;;;;;;0.55;0.43;;;10.10;99.90;;;;;;5111611;28;20097;-68
2023/05/28 02:25:33;;;;;;;3.28;0.75;;;10.00;99.90;;;;;;5093519;28;20134;-68
2023/05/28 02:28:00;;;;;;;0.65;0.65;;;10.10;99.90;;;;;;5111755;28;20047;-68
2023/05/28 02:30:26;;;;;;;1.67;0.63;;;9.90;99.90;;;;;;5115202;28;20112;-68
2023/05/28 02:32:51;;;;;;;0.30;0.30;;;10.70;99.90;;;;;;5074532;28;20496;-68
2023/05/28 02:35:19;;;;;;;0.73;0.73;;;10.00;99.90;;;;;;5094825;28;20052;-69
2023/05/28 02:37:45;;;;;;;0.30;0.30;;;10.30;99.90;;;;;;5094628;28;20054;-68
2023/05/28 02:40:11;;;;;;;0.88;0.88;;;9.70;99.90;;;;;;5094892;28;20470;-68
2023/05/28 02:42:37;;;;;;;0.32;0.32;;;9.90;99.90;;;;;;5094829;28;20086;-67
2023/05/28 02:45:04;;;;;;;0.22;0.22;;;9.90;99.90;;;;;;5094696;28;20094;-68
2023/05/28 02:47:29;;;;;;;0.22;0.22;;;10.20;99.90;;;;;;5094560;28;20044;-67
2023/05/28 02:49:55;;;;;;;0.43;0.43;;;9.60;99.90;;;;;;5093295;28;20074;-68
2023/05/28 02:52:21;;;;;;;0.30;0.30;;;10.20;99.90;;;;;;5094431;28;20075;-68
2023/05/28 02:54:46;;;;;;;0.75;0.75;;;10.20;99.90;;;;;;5094619;28;20156;-68
2023/05/28 02:57:12;;;;;;;0.32;0.32;;;9.70;99.90;;;;;;5094471;28;20044;-67
2023/05/28 02:59:38;;;;;;;0.60;0.60;;;10.00;99.90;;;;;;5094404;28;20055;-67
2023/05/28 03:02:04;;;;;;;0.40;0.40;;;10.70;99.90;;;;;;5094429;28;20384;-67
2023/05/28 03:04:29;;;;;;;0.50;0.50;;;10.20;99.90;;;;;;5094211;28;20048;-68
2023/05/28 03:06:55;;;;;;;1.00;0.60;;;9.80;99.90;;;;;;5094104;28;20044;-67
2023/05/28 03:09:21;;;;;;;0.65;0.65;;;9.80;99.90;;;;;;5094296;28;20054;-67
2023/05/28 03:11:47;;;;;;;0.30;0.30;;;9.60;99.90;;;;;;5093058;28;20044;-67
2023/05/28 03:14:12;;;;;;;0.30;0.30;;;10.00;99.90;;;;;;5093947;28;20513;-67
2023/05/28 03:16:38;;;;;;;0.57;0.57;;;9.60;99.90;;;;;;5094007;28;20040;-67
2023/05/28 03:19:04;;;;;;;0.40;0.40;;;10.10;99.90;;;;;;5093936;28;20097;-67
2023/05/28 03:21:30;;;;;;;0.30;0.30;;;9.80;99.90;;;;;;5093765;28;20519;-67
2023/05/28 03:23:55;;;;;;;0.40;0.40;;;9.80;99.90;;;;;;5093989;28;20095;-67
2023/05/28 03:26:21;;;;;;;0.40;0.40;;;9.70;99.90;;;;;;5092614;28;20048;-67
2023/05/28 03:28:47;;;;;;;0.30;0.30;;;9.90;99.90;;;;;;5093936;28;20470;-67
2023/05/28 03:31:13;;;;;;;0.30;0.30;;;10.40;99.90;;;;;;5093746;28;20051;-67
2023/05/28 03:33:38;;;;;;;0.38;0.38;;;9.30;99.90;;;;;;5112488;28;20065;-67
2023/05/28 03:36:06;;;;;;;4.97;0.57;;;10.20;99.90;;;;;;5113844;28;20043;-67
2023/05/28 03:38:32;;;;;;;0.77;0.30;;;10.10;99.90;;;;;;5114143;28;20051;-67
2023/05/28 03:40:58;;;;;;;0.30;0.30;;;10.50;99.90;;;;;;5112886;28;20081;-67
2023/05/28 03:43:24;;;;;;;0.28;0.28;;;9.60;99.90;;;;;;5114000;28;20116;-67
2023/05/28 03:45:50;;;;;;;0.28;0.28;;;9.40;99.90;;;;;;5113986;28;20538;-67
2023/05/28 03:48:16;;;;;;;0.45;0.45;;;9.90;99.90;;;;;;5113859;28;20054;-66
2023/05/28 03:50:41;;;;;;;0.20;0.20;;;9.70;99.90;;;;;;5113861;28;20039;-66
2023/05/28 03:53:07;;;;;;;0.88;0.35;;;9.20;99.90;;;;;;5114072;28;20051;-67
2023/05/28 03:55:35;;;;;;;0.28;0.28;;;9.70;99.90;;;;;;5113854;28;20054;-67
2023/05/28 03:58:00;;;;;;;0.60;0.60;;;9.40;99.90;;;;;;5113713;28;20047;-67
2023/05/28 04:00:26;;;;;;;0.30;0.30;;;10.30;99.90;;;;;;5113570;28;20040;-66
2023/05/28 04:02:51;;;;;;;2.63;0.70;;;11.10;99.90;;;;;;5113416;28;20043;-66
2023/05/28 04:05:17;;;;;;;0.35;0.35;;;9.50;99.90;;;;;;5113348;28;20055;-66
2023/05/28 04:07:43;;;;;;;0.82;0.82;;;10.20;99.90;;;;;;5113532;28;20130;-67
2023/05/28 04:10:09;;;;;;;0.80;0.80;;;9.50;99.90;;;;;;5113405;28;20079;-67
2023/05/28 04:12:35;;;;;;;0.22;0.22;;;10.30;99.90;;;;;;5113347;28;20043;-67
2023/05/28 04:15:00;;;;;;;0.32;0.32;;;9.70;99.90;;;;;;5113259;28;20109;-67
2023/05/28 04:17:27;;;;;;;0.52;0.52;;;10.30;99.90;;;;;;5094838;28;20036;-67
2023/05/28 04:19:55;;;;;;;0.52;0.50;;;9.80;99.90;;;;;;5113037;28;20376;-67
2023/05/28 04:22:23;;;;;;;0.30;0.30;;;10.40;99.90;;;;;;5113136;28;20050;-67
2023/05/28 04:24:55;;;;;;;0.60;0.60;;;10.70;99.90;;;;;;5113037;28;20091;-68
2023/05/28 04:27:21;;;;;;;0.43;0.40;;;9.50;99.90;;;;;;5112865;28;20043;-67
2023/05/28 04:29:47;;;;;;;2.15;2.05;;;10.90;99.90;;;;;;5112967;28;20092;-67
2023/05/28 04:32:13;;;;;;;0.38;0.38;;;10.20;99.90;;;;;;5077496;28;20074;-67
2023/05/28 04:34:42;;;;;;;0.40;0.40;;;10.50;99.90;;;;;;5112630;28;20051;-67
2023/05/28 04:37:08;;;;;;;0.30;0.30;;;11.00;99.90;;;;;;5112946;28;20292;-68
2023/05/28 04:39:34;;;;;;;1.15;0.40;;;11.50;99.90;;;;;;5112776;28;20105;-67
2023/05/28 04:42:03;;;;;;;0.50;0.50;;;10.50;99.90;;;;;;5112814;28;20047;-67
2023/05/28 04:44:30;;;;;;;1.05;1.05;;;11.20;99.90;;;;;;5094568;28;20090;-68
2023/05/28 04:46:58;;;;;;;1.30;0.32;;;11.30;99.90;;;;;;5112572;28;20039;-68
2023/05/28 04:49:25;;;;;;;0.73;0.47;;;11.60;99.90;;;;;;5112823;28;20040;-68
2023/05/28 04:51:51;;;;;;;0.20;0.20;;;10.20;99.90;;;;;;5094190;28;20100;-68
2023/05/28 04:54:17;;;;;;;0.35;0.35;;;10.50;99.90;;;;;;5112579;28;20040;-68
2023/05/28 04:56:42;;;;;;;0.20;0.20;;;11.70;99.90;;;;;;5094440;28;20050;-68
2023/05/28 04:59:09;;;;;;;0.38;0.38;;;11.80;99.90;;;;;;5112443;28;20051;-68
2023/05/28 05:01:39;;;;;;;0.40;0.40;;;11.00;99.90;;;;;;5094305;28;20118;-68
2023/05/28 05:04:06;;;;;;;0.73;0.73;;;11.20;99.90;;;;;;5112530;28;20067;-68
2023/05/28 05:06:32;;;;;;;0.30;0.30;;;11.60;99.90;;;;;;5112558;28;20460;-68
2023/05/28 05:08:59;;;;;;;0.40;0.40;;;11.40;99.90;;;;;;5112360;28;20078;-68
2023/05/28 05:11:26;;;;;;;0.32;0.32;;;12.60;99.90;;;;;;5112288;28;20040;-68
2023/05/28 05:13:52;;;;;;;0.25;0.25;;;12.20;99.90;;;;;;5112189;28;20047;-67
2023/05/28 05:16:19;;;;;;;0.40;0.40;;;12.80;99.90;;;;;;5112126;28;20052;-67
2023/05/28 05:18:45;;;;;;;0.45;0.45;;;12.00;99.90;;;;;;5112374;28;20044;-68
2023/05/28 05:21:12;;;;;;;0.65;0.65;;;11.90;99.90;;;;;;5112272;28;20046;-67
2023/05/28 05:23:39;;;;;;;0.88;0.30;;;12.90;99.90;;;;;;5112198;28;20057;-68
2023/05/28 05:26:06;;;;;;;1.40;0.60;;;12.90;99.90;;;;;;5112271;28;20098;-66
2023/05/28 05:28:32;;;;;;;8.57;1.08;;;13.20;99.90;;;;;;5077544;28;20454;-67
2023/05/28 05:30:57;;;;;;;1.20;1.10;;;13.00;99.90;;;;;;5111925;28;20147;-68
2023/05/28 05:33:23;;;;;;;0.50;0.50;;;12.20;99.90;;;;;;5112202;28;20063;-67
2023/05/28 05:35:49;;;;;;;0.43;0.43;;;13.00;99.90;;;;;;5112051;28;20134;-68
2023/05/28 05:38:14;;;;;;;0.20;0.20;;;13.20;99.90;;;;;;5077438;28;20055;-68
2023/05/28 05:40:40;;;;;;;0.60;0.60;;;12.50;99.90;;;;;;5112105;28;20079;-65
2023/05/28 05:43:06;;;;;;;0.75;0.75;;;13.10;99.90;;;;;;5112120;28;20048;-65
2023/05/28 05:45:31;;;;;;;0.45;0.45;;;12.80;99.90;;;;;;5112197;28;20044;-66
2023/05/28 05:47:57;;;;;;;0.50;0.50;;;13.10;99.90;;;;;;5112254;28;20160;-66
2023/05/28 05:50:23;;;;;;;0.80;0.50;;;13.30;99.90;;;;;;5111993;28;20054;-67
2023/05/28 05:52:48;;;;;;;0.20;0.20;;;13.70;99.90;;;;;;5112093;28;20072;-67
2023/05/28 05:55:14;;;;;;;0.57;0.57;;;13.50;99.90;;;;;;5111819;28;20048;-65
2023/05/28 05:57:41;;;;;;;0.50;0.50;;;13.50;99.90;;;;;;5111840;28;20425;-64
2023/05/28 06:00:10;;;;;;;0.50;0.50;;;13.00;99.90;;;;;;5111722;28;20058;-66
2023/05/28 06:02:38;;;;;;;1.38;0.80;;;12.80;99.90;;;;;;5112103;28;20044;-68
2023/05/28 06:05:06;;;;;;;1.67;1.55;;;13.00;99.90;;;;;;5115370;28;20056;-68
2023/05/28 06:07:32;;;;;;;0.43;0.43;;;13.30;99.90;;;;;;5115806;28;20568;-68
2023/05/28 06:09:58;;;;;;;0.65;0.60;;;13.50;99.90;;;;;;5115662;28;20414;-65
2023/05/28 06:12:24;;;;;;;4.50;1.05;;;13.60;99.90;;;;;;5115457;28;20052;-67
2023/05/28 06:14:50;;;;;;;0.45;0.45;;;13.20;99.90;;;;;;5115323;28;20061;-66
2023/05/28 06:17:16;;;;;;;;;;;13.80;99.90;;;;;;5116101;28;20040;-64
2023/05/28 06:19:42;;;;;;;0.77;0.77;;;13.60;99.90;;;;;;5115549;28;19920;-65
2023/05/28 06:22:10;;;;;;;0.45;0.45;;;13.60;99.90;;;;;;5097215;28;20062;-66
2023/05/28 06:24:38;;;;;;;0.47;0.47;;;13.70;99.90;;;;;;5115369;28;20087;-67
2023/05/28 06:27:05;;;;;;;0.60;0.60;;;13.90;99.90;;;;;;5115266;28;20544;-67
2023/05/28 06:29:30;;;;;;;1.33;1.10;;;14.10;99.90;;;;;;5112352;27;20039;-67
2023/05/28 06:31:56;;;;;;;0.50;0.50;;;13.90;99.90;;;;;;5093453;28;20109;-66
2023/05/28 06:34:22;;;;;;;2.17;0.38;;;13.90;99.90;;;;;;5115579;27;20050;-65
2023/05/28 06:36:48;;;;;;;0.50;0.50;;;13.80;99.90;;;;;;5135111;27;20054;-67
2023/05/28 06:39:14;;;;;;;0.73;0.45;;;14.10;99.90;;;;;;5134299;27;20051;-65
2023/05/28 06:41:39;;;;;;;9.35;1.65;;;14.20;99.90;;;;;;5114539;27;20490;-63
2023/05/28 06:44:05;;;;;;;1.13;1.00;;;14.00;99.90;;;;;;5114336;28;20123;-65
2023/05/28 06:46:32;;;;;;;0.30;0.30;;;14.60;99.90;;;;;;5132193;27;20050;-64
2023/05/28 06:48:57;;;;;;;0.40;0.40;;;14.30;99.90;;;;;;5134906;27;20047;-67
2023/05/28 06:51:23;;;;;;;0.65;0.65;;;14.50;99.90;;;;;;5134409;27;20490;-64
2023/05/28 06:53:49;;;;;;;0.20;0.20;;;14.40;99.90;;;;;;5134354;27;20479;-67
2023/05/28 06:56:14;;;;;;;0.30;0.30;;;14.50;99.90;;;;;;5134512;27;20148;-67
2023/05/28 06:58:40;;;;;;;0.20;0.20;;;14.50;99.90;;;;;;5116329;27;20050;-65
2023/05/28 07:01:06;;;;;;;;;;;14.60;99.90;;;;;;5134220;27;20087;-66
2023/05/28 07:03:32;;;;;;;1.42;1.42;;;14.50;99.90;;;;;;5134600;27;19926;-66
2023/05/28 07:05:57;;;;;;;;;;;14.60;99.90;;;;;;5134914;27;20155;-67
2023/05/28 07:08:23;;;;;;;0.65;0.32;;;15.00;99.90;;;;;;5134193;27;20442;-67
2023/05/28 07:10:49;;;;;;;;;;;14.80;99.90;;;;;;5135090;27;20047;-66
2023/05/28 07:13:14;;;;;;;1.83;1.58;;;15.00;99.90;;;;;;5134627;27;20476;-69
2023/05/28 07:15:40;;;;;;;0.32;0.32;;;15.30;99.90;;;;;;5118525;27;20486;-66
2023/05/28 07:18:06;;;;;;;;;;;14.80;99.90;;;;;;5114452;28;20071;-66
2023/05/28 07:20:31;;;;;;;0.45;0.30;;;15.00;99.90;;;;;;5095841;28;19945;-66
2023/05/28 07:22:57;;;;;;;;;;;15.20;99.90;;;;;;5119586;27;20085;-65
2023/05/28 07:25:23;;;;;;;1.08;1.05;;;15.40;99.90;;;;;;5118677;27;20272;-65
2023/05/28 07:27:48;;;;;;;0.20;0.20;;;15.30;99.90;;;;;;5113862;28;20849;-66
2023/05/28 07:30:14;;;;;;;0.40;0.40;;;15.50;99.90;;;;;;5113800;28;20055;-66
2023/05/28 07:32:40;;;;;;;;;;;15.60;99.90;;;;;;5114214;28;20063;-67
2023/05/28 07:35:06;;;;;;;0.52;0.30;;;15.40;99.90;;;;;;5113945;27;19920;-65
2023/05/28 07:37:32;;;;;;;;;;;15.70;99.90;;;;;;5122306;27;20052;-65
2023/05/28 07:39:57;;;;;;;0.22;0.22;;;15.20;99.90;;;;;;5095708;28;19920;-65
2023/05/28 07:42:23;;;;;;;0.40;0.40;;;15.40;99.90;;;;;;5095789;28;20036;-66
2023/05/28 07:44:49;;;;;;;;;;;15.20;99.90;;;;;;5113641;28;20040;-66
2023/05/28 07:47:15;;;;;;;1.55;1.45;;;15.90;99.90;;;;;;5113653;28;19923;-65
2023/05/28 07:49:41;;;;;;;1.25;0.90;;;15.60;99.90;;;;;;5113552;28;20051;-65
2023/05/28 07:52:07;;;;;;;0.65;0.65;;;15.50;99.90;;;;;;5112591;28;20052;-65
2023/05/28 07:54:33;;;;;;;;;;;15.80;99.90;;;;;;5078952;28;20547;-65
2023/05/28 07:57:00;;;;;;;0.52;0.52;;;15.70;99.90;;;;;;5113021;28;20375;-64
2023/05/28 07:59:26;;;;;;;0.30;0.30;;;15.60;99.90;;;;;;5095044;28;20055;-64
2023/05/28 08:01:52;;;;;;;0.20;0.20;;;15.80;99.90;;;;;;5113299;28;20040;-65
2023/05/28 08:04:18;;;;;;;;;;;15.90;99.90;;;;;;5114058;28;20391;-64
2023/05/28 08:06:43;;;;;;;1.85;0.75;;;15.80;99.90;;;;;;5112051;28;19920;-64
2023/05/28 08:09:09;;;;;;;;;;;16.00;99.90;;;;;;5113496;28;20118;-66
2023/05/28 08:11:35;;;;;;;1.10;1.00;;;15.80;99.90;;;;;;5112915;28;19923;-65
2023/05/28 08:14:00;;;;;;;;;;;15.80;99.90;;;;;;5113215;27;20039;-67
2023/05/28 08:16:26;;;;;;;4.40;0.73;;;16.10;99.90;;;;;;5128077;27;20340;-66
2023/05/28 08:18:52;;;;;;;;;;;16.40;99.90;;;;;;5130340;27;20047;-66
2023/05/28 08:21:17;;;;;;;0.80;0.80;;;16.30;99.90;;;;;;5112357;28;19923;-64
2023/05/28 08:23:43;;;;;;;;;;;16.00;99.90;;;;;;5113398;27;20043;-66
2023/05/28 08:26:09;;;;;;;0.40;0.40;;;16.50;99.90;;;;;;5093754;28;20399;-65
2023/05/28 08:28:35;;;;;;;;;;;16.50;99.90;;;;;;5112784;27;20047;-65
2023/05/28 08:31:00;;;;;;;1.00;1.00;;;16.40;99.90;;;;;;5112602;28;20268;-65
2023/05/28 08:33:26;;;;;;;;;;;16.60;99.90;;;;;;5112887;28;20055;-66
2023/05/28 08:35:52;;;;;;;0.90;0.90;;;16.70;99.90;;;;;;5111107;28;19923;-65
2023/05/28 08:38:18;;;;;;;;;;;17.00;99.90;;;;;;5112236;28;20089;-66
2023/05/28 08:40:53;;;;;;;0.57;0.57;;;16.70;99.90;;;;;;5112387;28;19924;-64
2023/05/28 08:43:19;;;;;;;0.32;0.32;;;16.90;99.90;;;;;;5093689;28;20932;-66
2023/05/28 08:45:45;;;;;;;0.32;0.32;;;17.10;99.90;;;;;;5112375;28;20056;-63
2023/05/28 08:48:11;;;;;;;;;;;17.00;99.90;;;;;;5094514;28;20055;-64
2023/05/28 08:50:40;;;;;;;0.40;0.40;;;16.90;99.90;;;;;;5111873;27;19923;-64
2023/05/28 08:53:07;;;;;;;0.35;0.35;;;17.00;99.90;;;;;;5111324;28;20050;-65
2023/05/28 08:55:34;;;;;;;0.52;0.50;;;17.10;99.90;;;;;;5112430;28;20154;-66
2023/05/28 08:58:00;;;;;;;0.40;0.40;;;16.80;99.90;;;;;;5111573;28;20487;-65
2023/05/28 09:00:26;;;;;;;;;;;16.80;99.90;;;;;;5112553;27;20047;-64
2023/05/28 09:02:52;;;;;;;3.00;0.93;;;17.50;99.90;;;;;;5111945;28;19920;-65
2023/05/28 09:05:17;;;;;;;0.25;0.25;;;17.50;99.90;;;;;;5116636;27;20429;-65
2023/05/28 09:07:44;;;;;;;1.10;1.02;;;17.50;99.90;;;;;;5130498;27;20043;-64
2023/05/28 09:10:11;;;;;;;5.32;1.75;;;17.60;99.90;;;;;;5132204;27;20062;-65
2023/05/28 09:12:40;;;;;;;0.30;0.30;;;17.30;99.90;;;;;;5132204;27;20045;-65
2023/05/28 09:15:07;;;;;;;1.10;1.10;;;17.50;99.90;;;;;;5085989;28;20081;-65
2023/05/28 09:17:37;;;;;;;0.88;0.57;;;17.50;99.90;;;;;;5119309;27;20082;-68
2023/05/28 09:20:13;;;;;;;0.60;0.60;;;18.00;99.90;;;;;;5114744;27;20040;-64
2023/05/28 09:22:39;;;;;;;0.22;0.20;;;17.80;99.90;;;;;;5120209;27;20067;-64
2023/05/28 09:25:09;;;;;;;0.20;0.20;;;18.00;99.90;;;;;;5120348;27;20040;-65
2023/05/28 09:27:36;;;;;;;0.57;0.57;;;18.00;99.90;;;;;;5120723;28;20050;-64
2023/05/28 09:30:11;;;;;;;0.57;0.57;;;18.00;99.90;;;;;;5122780;28;20047;-64
2023/05/28 09:32:37;;;;;;;0.30;0.30;;;17.80;99.90;;;;;;5121667;28;20056;-65
2023/05/28 09:35:06;;;;;;;;;;;18.20;99.90;;;;;;5117427;28;20284;-65
2023/05/28 09:37:33;;;;;;;0.73;0.68;;;20.50;99.90;;;;;;5120657;27;19920;-65
2023/05/28 09:40:03;;;;;;;0.10;0.10;;;18.30;99.90;;;;;;5134992;27;20058;-63
2023/05/28 09:42:51;;;;;;;3.42;0.55;;;18.00;99.90;;;;;;5136383;27;20042;-63
2023/05/28 09:45:25;;;;;;;1.45;1.35;;;18.60;99.90;;;;;;5136410;27;20058;-66
2023/05/28 09:47:51;;;;;;;0.57;0.57;;;18.40;99.90;;;;;;5135957;27;20119;-64
2023/05/28 09:50:17;;;;;;;0.10;0.10;;;18.50;99.90;;;;;;5122742;27;20047;-64
2023/05/28 09:52:44;;;;;;;0.30;0.30;;;19.00;99.90;;;;;;5114802;27;20381;-67
2023/05/28 09:55:14;;;;;;;0.75;0.30;;;19.10;99.90;;;;;;5117894;27;20167;-64
2023/05/28 09:57:46;;;;;;;2.28;0.57;;;18.80;99.90;;;;;;5132320;27;20493;-65
2023/05/28 10:00:22;;;;;;;0.93;0.73;;;18.30;99.90;;;;;;5134562;27;20054;-65
2023/05/28 10:02:59;;;;;;;0.30;0.30;;;18.50;99.90;;;;;;5134454;27;20039;-64
2023/05/28 10:05:28;;;;;;;0.10;0.10;;;18.20;99.90;;;;;;5135517;27;20790;-65
2023/05/28 10:07:55;;;;;;;2.72;1.60;;;18.20;99.90;;;;;;5135911;27;20477;-64
2023/05/28 10:10:21;;;;;;;1.05;0.82;;;18.20;99.90;;;;;;5135930;27;20043;-64
2023/05/28 10:12:49;;;;;;;0.40;0.40;;;18.40;99.90;;;;;;5135658;27;20068;-65
2023/05/28 10:15:16;;;;;;;1.35;0.30;;;18.30;99.90;;;;;;5121658;27;20695;-64
2023/05/28 10:17:43;;;;;;;0.10;0.10;;;18.10;99.90;;;;;;5115307;28;20043;-64
2023/05/28 10:20:10;;;;;;;0.55;0.55;;;18.20;99.90;;;;;;5115242;28;20098;-63
2023/05/28 10:22:39;;;;;;;0.28;0.28;;;17.90;99.90;;;;;;5115455;28;20408;-65
2023/05/28 10:25:07;;;;;;;1.48;0.28;;;18.00;99.90;;;;;;5115002;28;20059;-65
2023/05/28 10:27:35;;;;;;;0.47;0.47;;;18.10;99.90;;;;;;5097189;28;20130;-64
2023/05/28 10:30:06;;;;;;;0.43;0.43;;;17.70;99.90;;;;;;5115282;28;20043;-63
2023/05/28 10:32:41;;;;;;;0.63;0.43;;;18.00;99.90;;;;;;5114756;28;20177;-63
2023/05/28 10:35:11;;;;;;;0.52;0.47;;;18.30;99.90;;;;;;5115313;28;20051;-63
2023/05/28 10:37:37;;;;;;;0.60;0.60;;;18.40;99.90;;;;;;5114617;28;20052;-63
2023/05/28 10:40:08;;;;;;;1.08;0.63;;;18.10;99.90;;;;;;5115165;28;20560;-63
2023/05/28 10:42:40;;;;;;;0.75;0.38;;;18.30;99.90;;;;;;5114879;28;20126;-64
2023/05/28 10:45:07;;;;;;;5.28;1.85;;;18.00;99.90;;;;;;5115162;28;20051;-64
2023/05/28 10:47:34;;;;;;;0.75;0.50;;;18.60;99.90;;;;;;5114790;28;20057;-62
2023/05/28 10:50:10;;;;;;;0.73;0.43;;;18.30;99.90;;;;;;5114120;28;20055;-63
2023/05/28 10:52:36;;;;;;;1.50;1.35;;;18.50;99.90;;;;;;5115130;28;20047;-66
2023/05/28 10:55:11;;;;;;;0.55;0.55;;;18.30;99.90;;;;;;5114813;28;20130;-64
2023/05/28 10:57:41;;;;;;;0.50;0.45;;;18.70;99.90;;;;;;5114622;28;20487;-64
2023/05/28 11:00:11;;;;;;;2.10;0.40;;;18.10;99.90;;;;;;5114759;28;20516;-64
2023/05/28 11:02:36;;;;;;;0.75;0.75;;;18.60;99.90;;;;;;5114424;28;20051;-66
2023/05/28 11:05:04;;;;;;;0.25;0.25;;;18.30;99.90;;;;;;5114395;28;20047;-62
2023/05/28 11:07:32;;;;;;;3.00;0.75;;;18.00;99.90;;;;;;5114459;28;20048;-63
2023/05/28 11:09:59;;;;;;;0.68;0.68;;;18.20;99.90;;;;;;5114563;28;20084;-64
2023/05/28 11:12:29;;;;;;;0.35;0.35;;;18.40;99.90;;;;;;5114247;28;20058;-62
2023/05/28 11:14:55;;;;;;;0.40;0.40;;;18.80;99.90;;;;;;5114211;28;20062;-63
2023/05/28 11:17:21;;;;;;;0.38;0.38;;;18.50;99.90;;;;;;5113796;28;20043;-64
2023/05/28 11:19:49;;;;;;;0.38;0.38;;;18.50;99.90;;;;;;5114346;28;20067;-64
2023/05/28 11:22:16;;;;;;;0.90;0.63;;;18.70;99.90;;;;;;5114269;28;20491;-64
2023/05/28 11:24:58;;;;;;;1.10;0.93;;;18.20;99.90;;;;;;5114256;28;20046;-63
2023/05/28 11:27:27;;;;;;;7.97;2.38;;;18.20;99.90;;;;;;5114305;28;20039;-65
2023/05/28 11:29:56;;;;;;;0.68;0.60;;;18.80;99.90;;;;;;5096361;28;20054;-64
2023/05/28 11:32:23;;;;;;;0.40;0.40;;;18.70;99.90;;;;;;5114171;28;20060;-63
2023/05/28 11:34:50;;;;;;;3.83;0.68;;;18.70;99.90;;;;;;5114172;28;20176;-63
2023/05/28 11:37:21;;;;;;;0.52;0.50;;;18.60;99.90;;;;;;5113899;28;20047;-62
2023/05/28 11:39:49;;;;;;;0.65;0.43;;;18.70;99.90;;;;;;5113958;28;20090;-63
2023/05/28 11:42:16;;;;;;;0.35;0.35;;;18.80;99.90;;;;;;5113893;28;20043;-63
2023/05/28 11:44:48;;;;;;;0.13;0.13;;;18.80;99.90;;;;;;5114104;28;20090;-64
2023/05/28 11:47:15;;;;;;;0.32;0.32;;;19.20;99.90;;;;;;5114040;28;20074;-64
2023/05/28 11:49:44;;;;;;;0.10;0.10;;;19.10;99.90;;;;;;5113950;28;20081;-63
2023/05/28 11:52:13;;;;;;;0.35;0.25;;;19.20;99.90;;;;;;5113735;28;20040;-64
2023/05/28 11:54:43;;;;;;;2.92;0.52;;;19.10;99.90;;;;;;5113661;28;20126;-63
2023/05/28 11:57:09;;;;;;;0.30;0.30;;;19.20;99.90;;;;;;5113572;28;20495;-63
2023/05/28 11:59:36;;;;;;;0.10;0.10;;;18.60;99.90;;;;;;5113762;28;20044;-63
2023/05/28 12:02:12;;;;;;;0.40;0.38;;;18.80;99.90;;;;;;5112704;28;20075;-64
2023/05/28 12:04:39;;;;;;;0.50;0.30;;;19.10;99.90;;;;;;5113581;28;20055;-63
2023/05/28 12:07:04;;;;;;;1.90;1.38;;;19.00;99.90;;;;;;5113382;28;20051;-64
2023/05/28 12:09:30;;;;;;;0.38;0.35;;;18.50;99.90;;;;;;5113387;28;20096;-63
2023/05/28 12:12:10;;;;;;;3.47;0.73;;;18.90;99.90;;;;;;5113340;28;20040;-64
2023/05/28 12:14:36;;;;;;;7.90;0.60;;;18.90;99.90;;;;;;5113386;28;20124;-64
2023/05/28 12:17:09;;;;;;;0.63;0.30;;;18.50;99.90;;;;;;5113293;28;20071;-63
2023/05/28 12:19:35;;;;;;;0.28;0.28;;;18.50;99.90;;;;;;5113093;28;20044;-64
2023/05/28 12:22:04;;;;;;;0.45;0.45;;;18.50;99.90;;;;;;5113128;28;20048;-64
2023/05/28 12:24:30;;;;;;;1.40;1.30;;;18.70;99.90;;;;;;5095320;28;20047;-63
2023/05/28 12:26:56;;;;;;;0.70;0.70;;;18.80;99.90;;;;;;5095009;28;20047;-63
2023/05/28 12:29:22;;;;;;;1.08;0.30;;;18.90;99.90;;;;;;5113031;28;20487;-64
2023/05/28 12:31:57;;;;;;;0.30;0.30;;;19.00;99.90;;;;;;5112718;28;20044;-64
2023/05/28 12:34:23;;;;;;;5.47;1.13;;;18.90;99.90;;;;;;5112853;28;20051;-63
2023/05/28 12:36:48;;;;;;;1.65;0.85;;;18.90;99.90;;;;;;5113028;28;20108;-66
2023/05/28 12:39:14;;;;;;;0.38;0.38;;;18.50;99.90;;;;;;5112877;28;20040;-65
2023/05/28 12:41:40;;;;;;;0.30;0.30;;;18.50;99.90;;;;;;5112887;28;20047;-63
2023/05/28 12:44:05;;;;;;;0.30;0.30;;;18.20;99.90;;;;;;5112892;28;20494;-64
2023/05/28 12:46:31;;;;;;;0.13;0.13;;;18.30;99.90;;;;;;5112710;28;20506;-63
2023/05/28 12:48:57;;;;;;;0.38;0.38;;;18.30;99.90;;;;;;5112641;28;20084;-64
2023/05/28 12:51:22;;;;;;;2.08;0.77;;;18.30;99.90;;;;;;5112677;28;20090;-62